Time;durP1;ratioP1;P1;durP2;ratioP2;P2;SDS_P1;SDS_P2;PMS_P1;PMS_P2;Temp;Humidity;BMP_temperature;BMP_pressure;BME280_temperature;BME280_humidity;BME280_pressure;Samples;Min_cycle;Max_cycle;Signal;HPM_P1;HPM_P2
2023/09/10 00:03:13;;;;;;;6.28;5.22;;;;;;;23.34;46.56;99870.56;10456353;28;20661;-36
2023/09/10 00:08:15;;;;;;;7.18;6.05;;;;;;;23.52;45.87;99873.88;10456391;28;20238;-35
2023/09/10 00:13:17;;;;;;;6.35;5.70;;;;;;;23.50;46.31;99882.34;10455061;28;20389;-36
2023/09/10 00:18:20;;;;;;;8.43;6.30;;;;;;;23.69;46.04;99865.50;10465163;28;20724;-38
2023/09/10 00:23:22;;;;;;;8.27;6.30;;;;;;;24.00;45.32;99869.06;10460726;28;20227;-36
2023/09/10 00:28:23;;;;;;;8.98;6.03;;;;;;;23.49;46.05;99897.09;10464702;28;20809;-38
2023/09/10 00:33:25;;;;;;;7.90;6.03;;;;;;;23.07;46.46;99912.47;10460148;28;20227;-36
2023/09/10 00:38:27;;;;;;;7.20;6.10;;;;;;;23.06;46.66;99905.38;10459910;28;20215;-36
2023/09/10 00:43:29;;;;;;;7.00;5.93;;;;;;;23.38;45.99;99888.06;10457718;28;20910;-37
2023/09/10 00:48:32;;;;;;;7.93;6.30;;;;;;;23.41;45.78;99889.41;10459135;28;20743;-35
2023/09/10 00:53:34;;;;;;;7.57;6.80;;;;;;;22.86;46.68;99897.88;10464856;28;20246;-36
2023/09/10 00:58:36;;;;;;;10.30;6.47;;;;;;;23.09;46.58;99895.84;10457296;28;20235;-37
2023/09/10 01:03:40;;;;;;;7.35;6.55;;;;;;;22.96;46.95;99886.22;10454244;28;20232;-37
2023/09/10 01:08:42;;;;;;;8.32;7.00;;;;;;;22.27;48.39;99896.09;10456694;28;20281;-36
2023/09/10 01:14:07;;;;;;;7.40;6.00;;;;;;;22.77;47.31;99864.00;10462352;28;21015;-36
2023/09/10 01:19:50;;;;;;;7.82;6.50;;;;;;;22.79;47.37;99871.91;10451447;28;21159;-37
2023/09/10 01:24:54;;;;;;;8.30;6.70;;;;;;;22.89;47.22;99877.41;10444866;28;20635;-36
2023/09/10 01:29:55;;;;;;;8.45;7.25;;;;;;;23.36;46.57;99851.16;10457107;28;20231;-35
2023/09/10 01:35:24;;;;;;;7.95;6.82;;;;;;;22.99;47.13;99871.19;10462670;28;20333;-36
2023/09/10 01:40:35;;;;;;;8.10;6.35;;;;;;;22.78;47.24;99876.56;10452817;28;20296;-35
2023/09/10 01:45:37;;;;;;;8.27;6.65;;;;;;;22.78;47.19;99894.84;10464882;28;20365;-35
2023/09/10 01:50:39;;;;;;;7.10;6.38;;;;;;;23.12;46.55;99864.47;10464206;28;21910;-35
2023/09/10 01:55:40;;;;;;;7.38;5.90;;;;;;;23.66;45.95;99864.09;10446017;28;21030;-35
2023/09/10 02:00:43;;;;;;;9.77;6.45;;;;;;;23.68;45.87;99866.56;10464688;28;20345;-36
2023/09/10 02:05:45;;;;;;;10.55;6.45;;;;;;;23.29;46.26;99883.38;10463265;28;20727;-35
2023/09/10 02:10:47;;;;;;;7.90;6.70;;;;;;;21.50;49.25;99889.88;10464003;28;20296;-35
2023/09/10 02:15:49;;;;;;;7.15;6.07;;;;;;;20.31;50.66;99900.13;10465571;28;20227;-35
2023/09/10 02:20:51;;;;;;;9.15;7.05;;;;;;;21.50;48.72;99848.22;10464459;28;20376;-37
2023/09/10 02:31:22;;;;;;;8.85;6.53;;;;;;;22.84;46.01;99880.13;10571287;23;20348;-72
2023/09/10 02:36:24;;;;;;;10.40;6.43;;;;;;;22.70;46.52;99879.78;10344093;28;20236;-72
2023/09/10 02:41:25;;;;;;;8.57;7.10;;;;;;;23.43;45.52;99851.72;10355522;22;20841;-35
2023/09/10 02:46:27;;;;;;;6.88;6.18;;;;;;;22.82;46.29;99888.56;10380599;28;20959;-35
2023/09/10 02:51:29;;;;;;;7.38;6.60;;;;;;;22.54;47.18;99897.97;10385762;28;20251;-35
2023/09/10 02:56:31;;;;;;;10.20;7.45;;;;;;;21.94;48.21;99905.34;10384256;28;20229;-34
2023/09/10 03:01:33;;;;;;;10.95;7.18;;;;;;;20.29;51.34;99883.28;10386978;28;20244;-35
2023/09/10 03:06:35;;;;;;;10.15;7.53;;;;;;;20.38;51.48;99867.38;10386529;28;20240;-34
2023/09/10 03:11:38;;;;;;;8.88;7.53;;;;;;;21.19;49.87;99848.69;10388262;28;20577;-35
2023/09/10 03:16:42;;;;;;;8.98;6.97;;;;;;;20.53;50.94;99878.50;10389960;28;20726;-35
2023/09/10 03:21:44;;;;;;;8.82;7.25;;;;;;;19.79;52.47;99886.72;10392353;28;20247;-35
2023/09/10 03:26:46;;;;;;;7.95;6.90;;;;;;;20.20;51.26;99869.28;10386794;28;20236;-34
2023/09/10 03:31:48;;;;;;;9.23;7.57;;;;;;;20.78;50.81;99822.84;10381551;28;20315;-34
2023/09/10 03:36:50;;;;;;;8.35;7.20;;;;;;;21.03;50.24;99827.78;10389008;28;20243;-34
2023/09/10 03:41:54;;;;;;;10.18;7.78;;;;;;;21.51;48.85;99847.13;10382028;28;20258;-34
2023/09/10 03:46:56;;;;;;;8.52;7.00;;;;;;;22.28;47.05;99858.75;10387556;28;20729;-34
2023/09/10 03:51:58;;;;;;;10.85;7.63;;;;;;;20.78;49.54;99907.97;10398250;28;20249;-34
2023/09/10 03:57:00;;;;;;;8.85;6.85;;;;;;;21.98;47.09;99849.25;10391416;28;20247;-35
2023/09/10 04:02:02;;;;;;;9.57;7.38;;;;;;;19.81;50.83;99945.16;10395453;28;20857;-35
2023/09/10 04:07:04;;;;;;;8.50;7.45;;;;;;;20.04;51.01;99932.53;10391795;28;20239;-35
2023/09/10 04:12:06;;;;;;;9.35;8.32;;;;;;;19.05;52.25;99928.06;10391411;28;20212;-34
2023/09/10 04:17:08;;;;;;;8.85;7.70;;;;;;;19.22;53.65;99831.38;10389034;28;20217;-34
2023/09/10 04:22:10;;;;;;;10.43;9.32;;;;;;;18.06;55.77;99886.97;10393225;28;20220;-34
2023/09/10 04:27:11;;;;;;;9.63;8.55;;;;;;;20.49;50.83;99856.41;10393389;28;22860;-34
2023/09/10 04:32:13;;;;;;;9.15;7.82;;;;;;;21.47;47.99;99890.38;10390306;28;20283;-34
2023/09/10 04:37:15;;;;;;;9.43;7.38;;;;;;;21.47;48.21;99900.44;10385294;28;20220;-34
2023/09/10 04:42:16;;;;;;;10.45;8.15;;;;;;;20.23;49.50;99979.38;10385509;28;20333;-34
2023/09/10 04:47:18;;;;;;;8.15;7.30;;;;;;;19.70;51.00;99981.31;10395002;28;20246;-34
2023/09/10 04:52:20;;;;;;;11.52;7.80;;;;;;;20.98;48.41;99915.59;10392710;28;20236;-34
2023/09/10 04:57:22;;;;;;;9.63;7.72;;;;;;;21.14;48.20;99923.94;10389430;28;20670;-34
2023/09/10 05:02:23;;;;;;;10.10;7.70;;;;;;;21.41;48.29;99900.38;10385540;28;20237;-35
2023/09/10 05:07:25;;;;;;;11.10;7.70;;;;;;;20.90;48.55;99969.59;10390726;28;20243;-34
2023/09/10 05:12:27;;;;;;;9.05;8.00;;;;;;;19.93;50.45;99977.69;10388711;28;20286;-34
2023/09/10 05:17:29;;;;;;;10.05;7.93;;;;;;;20.46;49.51;99945.78;10387643;28;20310;-34
2023/09/10 05:22:31;;;;;;;10.55;8.18;;;;;;;20.74;49.05;99919.56;10390773;28;20209;-34
2023/09/10 05:27:33;;;;;;;10.88;7.60;;;;;;;20.58;49.33;99941.09;10387862;28;20331;-34
2023/09/10 05:32:34;;;;;;;9.73;7.70;;;;;;;21.58;47.72;99911.19;10389668;28;20728;-34
2023/09/10 05:37:36;;;;;;;9.55;8.02;;;;;;;19.37;51.01;100012.63;10390035;28;20236;-35
2023/09/10 05:42:38;;;;;;;11.00;8.27;;;;;;;21.11;48.87;99898.09;10387066;28;20229;-34
2023/09/10 05:47:39;;;;;;;8.50;7.18;;;;;;;21.71;47.58;99948.13;10391611;28;20390;-34
2023/09/10 05:52:41;;;;;;;12.25;8.02;;;;;;;22.05;46.92;99919.84;10388156;28;20315;-34
2023/09/10 05:57:43;;;;;;;9.45;7.10;;;;;;;22.11;46.27;99956.97;10388510;28;20744;-34
2023/09/10 06:02:45;;;;;;;9.73;8.07;;;;;;;21.76;46.65;99978.13;10387235;28;20247;-34
2023/09/10 06:07:47;;;;;;;7.95;7.15;;;;;;;21.44;48.04;99958.94;10388807;28;20245;-34
2023/09/10 06:12:49;;;;;;;8.68;6.93;;;;;;;22.50;45.80;99941.28;10387712;28;20239;-34
2023/09/10 06:17:51;;;;;;;9.70;6.57;;;;;;;21.39;48.29;99983.34;10387481;28;20240;-34
2023/09/10 06:22:53;;;;;;;8.75;6.72;;;;;;;21.38;49.12;99939.00;10386704;28;20285;-34
2023/09/10 06:27:54;;;;;;;10.82;7.28;;;;;;;21.12;49.72;100011.28;10384161;28;20720;-34
2023/09/10 06:32:57;;;;;;;10.55;7.63;;;;;;;21.50;49.24;99957.94;10371636;28;20230;-34
2023/09/10 06:37:59;;;;;;;8.85;7.70;;;;;;;21.86;48.89;99962.97;10387078;28;20227;-34
2023/09/10 06:43:00;;;;;;;9.57;8.05;;;;;;;20.95;50.86;99942.47;10384759;28;20262;-34
2023/09/10 06:48:02;;;;;;;9.85;8.52;;;;;;;20.02;52.11;99995.22;10383484;28;20229;-34
2023/09/10 06:53:04;;;;;;;10.15;8.25;;;;;;;19.06;54.33;100020.03;10386301;28;20588;-34
2023/09/10 06:58:06;;;;;;;9.35;8.40;;;;;;;20.24;52.21;100005.44;10370802;28;20240;-34
2023/09/10 07:03:08;;;;;;;13.48;8.15;;;;;;;19.63;53.12;100045.75;10367293;28;20307;-34
2023/09/10 07:08:13;;;;;;;9.75;7.65;;;;;;;22.06;48.53;99968.66;10389655;28;20224;-34
2023/09/10 07:13:16;;;;;;;9.57;8.13;;;;;;;19.66;53.68;100029.00;10381251;28;20247;-34
2023/09/10 07:18:18;;;;;;;8.68;6.93;;;;;;;21.30;50.81;99985.66;10385193;28;20247;-34
2023/09/10 07:23:19;;;;;;;8.88;7.55;;;;;;;21.03;51.09;99993.72;10400237;28;20262;-34
2023/09/10 07:28:21;;;;;;;11.07;7.75;;;;;;;19.94;53.13;100044.53;10397217;28;20251;-34
2023/09/10 07:33:23;;;;;;;9.80;7.40;;;;;;;21.28;50.70;99992.47;10394721;28;20224;-34
2023/09/10 07:38:25;;;;;;;10.70;7.15;;;;;;;21.46;50.24;100048.50;10393560;28;20749;-34
2023/09/10 07:43:26;;;;;;;9.65;6.63;;;;;;;22.20;50.11;99963.63;10393987;28;20290;-34
2023/09/10 07:48:28;;;;;;;7.93;7.13;;;;;;;22.52;49.02;99990.94;10396624;28;20267;-34
2023/09/10 07:53:30;;;;;;;9.00;6.93;;;;;;;23.16;47.99;100030.16;10374967;28;20267;-34
2023/09/10 07:58:32;;;;;;;7.82;7.03;;;;;;;22.90;47.84;100027.22;10395639;28;20235;-34
2023/09/10 08:03:36;;;;;;;8.55;7.45;;;;;;;23.51;47.21;100006.84;10398487;28;20233;-34
2023/09/10 08:08:38;;;;;;;8.38;7.43;;;;;;;23.68;47.10;100003.16;10394287;28;20224;-34
2023/09/10 08:13:42;;;;;;;8.60;7.47;;;;;;;21.78;50.18;100052.22;10394349;28;20765;-34
2023/09/10 08:18:45;;;;;;;8.15;7.35;;;;;;;21.45;51.03;100071.38;10393369;28;20288;-34
2023/09/10 08:23:47;;;;;;;8.30;7.00;;;;;;;23.99;46.39;100015.81;10393636;28;20237;-34
2023/09/10 08:28:49;;;;;;;8.60;7.60;;;;;;;22.26;49.02;100084.41;10376093;28;20229;-34
2023/09/10 08:33:51;;;;;;;10.90;7.68;;;;;;;23.67;47.85;99977.75;10391296;28;20275;-34
2023/09/10 08:38:54;;;;;;;14.52;7.32;;;;;;;24.47;45.60;100026.59;10385830;28;20315;-34
2023/09/10 08:43:58;;;;;;;9.43;7.25;;;;;;;22.96;48.17;100079.09;10390277;28;20237;-35
2023/09/10 08:49:01;;;;;;;8.55;6.63;;;;;;;24.14;47.29;100025.97;10382944;28;20239;-35
2023/09/10 08:54:02;;;;;;;9.50;7.78;;;;;;;23.18;48.05;100027.16;10391540;28;20224;-35
2023/09/10 08:59:06;;;;;;;10.15;8.32;;;;;;;23.39;48.71;100017.19;10393053;22;20224;-73
2023/09/10 09:04:09;;;;;;;9.43;7.15;;;;;;;24.81;45.73;100011.56;10382692;28;20619;-73
2023/09/10 09:09:12;;;;;;;7.63;6.80;;;;;;;25.16;46.34;99987.97;10390322;28;20719;-73
2023/09/10 09:14:14;;;;;;;11.23;8.07;;;;;;;24.26;47.34;100035.84;10385392;28;20836;-73
2023/09/10 09:19:17;;;;;;;14.38;7.18;;;;;;;24.09;47.74;100030.59;10385395;28;20244;-73
2023/09/10 09:24:22;;;;;;;9.05;7.05;;;;;;;25.91;44.58;99955.13;10385691;28;20234;-74
2023/09/10 09:29:23;;;;;;;9.55;7.13;;;;;;;26.01;44.71;99962.44;10379732;28;20347;-72
2023/09/10 09:34:26;;;;;;;9.85;7.22;;;;;;;25.87;44.88;99962.25;10379169;28;20249;-73
2023/09/10 09:39:29;;;;;;;11.73;7.00;;;;;;;27.00;43.13;99944.06;10309946;28;20383;-75
2023/09/10 09:44:31;;;;;;;13.45;6.55;;;;;;;26.76;43.10;99980.53;10300853;28;20238;-75
2023/09/10 09:49:43;;;;;;;7.95;6.85;;;;;;;27.03;43.17;99938.81;10301219;28;20377;-73
2023/09/10 09:54:47;;;;;;;6.93;6.22;;;;;;;26.76;43.56;99950.34;10314481;28;20328;-73
2023/09/10 09:59:49;;;;;;;11.10;6.38;;;;;;;27.60;42.28;99944.44;10311485;28;20236;-74
2023/09/10 10:04:53;;;;;;;7.22;6.43;;;;;;;25.88;44.69;99961.16;10308527;28;20238;-73
2023/09/10 10:09:57;;;;;;;7.47;5.93;;;;;;;26.62;43.38;99952.09;10309911;28;20242;-76
2023/09/10 10:15:00;;;;;;;9.05;5.95;;;;;;;27.88;42.02;99927.31;10316213;28;21091;-75
2023/09/10 10:20:04;;;;;;;8.40;6.18;;;;;;;27.75;41.51;99902.22;10302341;28;20230;-74
2023/09/10 10:25:07;;;;;;;8.40;5.90;;;;;;;27.43;41.67;99911.97;10305714;28;20241;-75
2023/09/10 10:30:10;;;;;;;6.95;5.70;;;;;;;28.26;40.75;99916.28;10298010;28;20320;-75
2023/09/10 10:35:12;;;;;;;6.72;4.90;;;;;;;28.40;40.16;99886.88;10303140;28;20244;-73
2023/09/10 10:40:19;;;;;;;6.70;5.80;;;;;;;28.12;40.99;99896.94;10320626;28;20250;-75
2023/09/10 10:45:24;;;;;;;8.73;5.72;;;;;;;27.63;39.76;99927.38;10297795;28;20221;-73
2023/09/10 10:50:27;;;;;;;7.90;5.88;;;;;;;28.29;40.53;99882.66;10300082;28;20376;-75
2023/09/10 10:55:32;;;;;;;8.63;5.70;;;;;;;28.21;39.31;99903.44;10298076;28;20946;-73
2023/09/10 11:06:17;;;;;;;6.75;5.53;;;;;;;25.83;42.84;99830.44;10423295;28;20815;-72
2023/09/10 11:11:42;;;;;;;8.07;5.07;;;;;;;26.39;41.85;99820.91;10389379;28;20233;-73
2023/09/10 11:16:44;;;;;;;5.70;4.85;;;;;;;27.03;41.45;99831.72;10374336;28;20345;-72
2023/09/10 11:21:55;;;;;;;6.47;4.90;;;;;;;26.37;41.73;99860.72;10416331;28;20323;-76
2023/09/10 11:27:35;;;;;;;7.10;4.97;;;;;;;26.24;41.25;99855.91;10378594;28;20240;-72
2023/09/10 11:32:37;;;;;;;5.65;4.55;;;;;;;26.20;39.96;99869.34;10285143;28;20264;-74
2023/09/10 11:37:41;;;;;;;8.07;4.90;;;;;;;26.86;38.90;99839.63;10354052;28;20239;-74
2023/09/10 11:42:44;;;;;;;6.68;4.53;;;;;;;26.92;39.69;99852.19;10387031;28;20257;-75
2023/09/10 11:47:50;;;;;;;5.25;4.47;;;;;;;27.32;38.76;99839.06;10375911;28;20794;-72
2023/09/10 11:52:52;;;;;;;8.82;4.07;;;;;;;27.16;38.63;99863.16;10372043;28;20727;-74
2023/09/10 11:57:54;;;;;;;8.05;5.05;;;;;;;27.17;38.00;99848.28;10377298;28;20231;-75
2023/09/10 12:02:58;;;;;;;5.68;4.10;;;;;;;27.09;38.29;99855.28;10383842;28;20235;-75
2023/09/10 12:08:01;;;;;;;6.28;3.88;;;;;;;27.81;35.88;99825.97;10404225;28;20239;-76
2023/09/10 12:13:06;;;;;;;7.40;3.70;;;;;;;28.08;35.70;99832.69;10382359;28;20808;-75
2023/09/10 12:18:08;;;;;;;6.07;3.30;;;;;;;27.21;34.93;99859.50;10346646;28;20228;-75
2023/09/10 12:23:09;;;;;;;5.50;3.92;;;;;;;28.55;35.80;99825.22;10348060;28;20237;-73
2023/09/10 12:28:11;;;;;;;8.43;3.78;;;;;;;28.41;35.30;99834.28;10352014;28;20368;-74
2023/09/10 12:33:14;;;;;;;6.80;4.50;;;;;;;28.39;34.94;99817.28;10345354;28;20256;-74
2023/09/10 12:38:17;;;;;;;7.18;3.85;;;;;;;28.62;34.63;99800.88;10347730;28;20231;-74
2023/09/10 12:43:23;;;;;;;6.30;3.40;;;;;;;28.50;34.46;99801.38;10347147;28;20792;-74
2023/09/10 12:48:25;;;;;;;9.65;3.50;;;;;;;27.81;33.33;99825.97;10342435;28;20284;-74
2023/09/10 12:53:26;;;;;;;7.63;3.08;;;;;;;28.05;31.82;99815.66;10350230;28;20237;-73
2023/09/10 12:58:29;;;;;;;7.80;3.05;;;;;;;29.06;31.82;99798.59;10345964;28;20232;-73
2023/09/10 13:03:30;;;;;;;6.53;3.83;;;;;;;29.05;32.85;99806.06;10343029;28;20253;-73
2023/09/10 13:08:32;;;;;;;7.30;3.42;;;;;;;27.88;32.49;99822.84;10342177;28;20236;-73
2023/09/10 13:13:34;;;;;;;4.00;3.30;;;;;;;27.63;34.05;99792.72;10344567;28;20291;-73
2023/09/10 13:18:35;;;;;;;4.90;2.80;;;;;;;29.12;33.14;99739.53;10341859;28;20233;-73
2023/09/10 13:23:37;;;;;;;3.85;3.13;;;;;;;29.23;32.92;99762.97;10342459;28;21641;-72
2023/09/10 13:28:40;;;;;;;5.18;3.35;;;;;;;28.26;32.92;99768.56;10343537;28;20291;-73
2023/09/10 13:33:41;;;;;;;6.20;3.25;;;;;;;28.58;32.17;99762.13;10350070;28;20318;-73
2023/09/10 13:38:43;;;;;;;9.07;3.70;;;;;;;29.35;32.13;99745.88;10347886;28;20241;-72
2023/09/10 13:43:45;;;;;;;7.72;3.25;;;;;;;28.37;32.23;99791.19;10340128;28;20287;-73
2023/09/10 13:48:48;;;;;;;5.80;3.22;;;;;;;28.35;32.32;99757.66;10344927;28;20244;-73
2023/09/10 13:53:49;;;;;;;6.60;3.45;;;;;;;29.19;31.78;99720.66;10339217;28;20229;-73
2023/09/10 13:58:51;;;;;;;5.18;3.90;;;;;;;28.39;31.59;99717.38;10341071;28;20225;-73
2023/09/10 14:03:53;;;;;;;4.70;3.00;;;;;;;28.61;31.22;99766.22;10342212;28;20232;-73
2023/09/10 14:08:54;;;;;;;4.63;3.40;;;;;;;28.04;32.06;99744.47;10346395;28;20396;-73
2023/09/10 14:13:56;;;;;;;7.18;3.67;;;;;;;29.85;31.16;99711.84;10339953;28;20233;-73
2023/09/10 14:18:58;;;;;;;7.05;3.20;;;;;;;30.04;30.28;99720.75;10340847;28;20260;-73
2023/09/10 14:23:59;;;;;;;6.05;3.03;;;;;;;29.73;31.15;99719.91;10342494;28;20391;-73
2023/09/10 14:29:01;;;;;;;4.70;3.28;;;;;;;30.06;30.18;99687.28;10343016;28;20232;-73
2023/09/10 14:34:03;;;;;;;6.40;3.45;;;;;;;28.90;31.59;99721.03;10349704;28;20233;-73
2023/09/10 14:39:05;;;;;;;4.43;3.15;;;;;;;29.40;30.58;99722.91;10341031;28;20320;-71
2023/09/10 14:44:13;;;;;;;6.05;3.47;;;;;;;29.89;30.59;99713.66;10346716;28;21010;-71
2023/09/10 14:49:14;;;;;;;7.82;3.33;;;;;;;29.08;30.56;99720.06;10341102;28;20240;-70
2023/09/10 14:54:16;;;;;;;3.65;3.10;;;;;;;29.96;30.65;99701.34;10336385;28;20229;-73
2023/09/10 14:59:18;;;;;;;5.70;3.35;;;;;;;28.87;30.66;99705.13;10338323;28;23537;-73
2023/09/10 15:04:20;;;;;;;4.72;3.17;;;;;;;29.82;31.37;99691.22;10359812;28;20323;-72
2023/09/10 15:09:22;;;;;;;5.88;3.28;;;;;;;29.58;31.94;99699.81;10377621;28;20231;-71
2023/09/10 15:14:24;;;;;;;3.95;2.83;;;;;;;29.51;32.22;99703.03;10383165;28;20236;-72
2023/09/10 15:19:29;;;;;;;5.88;3.38;;;;;;;28.96;34.43;99670.19;10381343;28;20608;-73
2023/09/10 15:24:30;;;;;;;6.05;3.50;;;;;;;29.09;33.12;99674.03;10382329;28;20228;-73
2023/09/10 15:29:32;;;;;;;5.15;3.53;;;;;;;29.55;32.30;99667.38;10382909;28;20331;-78
2023/09/10 15:34:34;;;;;;;6.30;3.20;;;;;;;29.03;32.41;99703.63;10381404;28;20240;-73
2023/09/10 15:39:35;;;;;;;6.45;3.25;;;;;;;28.36;33.13;99699.56;10384223;28;20245;-78
2023/09/10 15:44:37;;;;;;;6.75;3.47;;;;;;;29.15;32.88;99678.34;10382698;28;20322;-78
2023/09/10 15:49:39;;;;;;;4.97;3.22;;;;;;;29.60;32.14;99663.72;10383292;28;20523;-81
2023/09/10 15:54:41;;;;;;;6.60;3.13;;;;;;;29.45;33.00;99676.72;10361690;28;20286;-75
2023/09/10 15:59:43;;;;;;;5.15;3.10;;;;;;;29.09;32.89;99671.28;10384847;28;20302;-72
2023/09/10 16:04:44;;;;;;;7.32;3.72;;;;;;;29.35;32.71;99679.75;10381932;28;20240;-73
2023/09/10 16:09:47;;;;;;;7.70;4.18;;;;;;;29.04;32.27;99701.69;10388184;28;20319;-76
2023/09/10 16:14:49;;;;;;;4.53;3.50;;;;;;;29.73;32.26;99670.28;10382912;28;20792;-74
2023/09/10 16:19:51;;;;;;;6.35;3.10;;;;;;;29.21;32.67;99696.34;10362528;28;20271;-73
2023/09/10 16:24:52;;;;;;;6.95;3.67;;;;;;;29.45;31.94;99687.75;10340195;28;20229;-73
2023/09/10 16:29:54;;;;;;;5.85;3.83;;;;;;;29.51;32.54;99692.00;10342749;28;20226;-74
2023/09/10 16:34:56;;;;;;;6.88;4.05;;;;;;;29.81;32.27;99686.84;10341913;28;20237;-73
2023/09/10 16:39:57;;;;;;;3.92;2.95;;;;;;;29.19;32.55;99709.63;10339715;28;20229;-73
2023/09/10 16:44:59;;;;;;;8.13;2.97;;;;;;;29.40;32.33;99711.88;10338845;28;20236;-73
2023/09/10 16:50:01;;;;;;;6.78;3.10;;;;;;;29.61;32.08;99702.00;10340472;28;20237;-73
2023/09/10 16:55:03;;;;;;;7.90;3.40;;;;;;;29.62;32.05;99687.09;10342889;28;20235;-72
2023/09/10 17:00:06;;;;;;;6.10;3.47;;;;;;;29.65;31.68;99707.69;10346745;28;20315;-72
2023/09/10 17:05:10;;;;;;;5.53;3.17;;;;;;;30.77;30.71;99687.16;10342489;28;20239;-72
2023/09/10 17:10:12;;;;;;;3.92;3.03;;;;;;;30.75;31.22;99706.00;10347325;28;20234;-72
2023/09/10 17:15:13;;;;;;;6.78;3.20;;;;;;;30.69;31.36;99701.75;10341094;28;20240;-72
2023/09/10 17:20:15;;;;;;;3.58;2.90;;;;;;;30.56;30.85;99709.03;10336721;28;20233;-72
2023/09/10 17:25:17;;;;;;;5.78;3.08;;;;;;;30.34;31.18;99711.91;10346311;28;20240;-72
2023/09/10 17:30:20;;;;;;;7.65;3.00;;;;;;;29.92;31.56;99694.84;10340919;28;20862;-71
2023/09/10 17:35:21;;;;;;;4.95;3.33;;;;;;;29.88;31.43;99694.66;10347141;28;20229;-73
2023/09/10 17:40:25;;;;;;;4.97;3.50;;;;;;;29.84;31.75;99685.38;10343749;28;20303;-73
2023/09/10 17:45:27;;;;;;;4.55;3.22;;;;;;;28.30;33.91;99713.75;10353960;28;21094;-74
2023/09/10 17:50:29;;;;;;;5.30;3.85;;;;;;;27.21;35.63;99690.06;10380692;28;20266;-72
2023/09/10 17:55:30;;;;;;;14.43;3.97;;;;;;;27.82;34.59;99698.41;10386503;28;20649;-72
2023/09/10 18:00:32;;;;;;;8.48;3.75;;;;;;;27.47;35.50;99679.47;10377672;28;20243;-73
2023/09/10 18:05:34;;;;;;;5.28;3.33;;;;;;;26.82;35.81;99687.63;10376355;28;20225;-73
2023/09/10 18:10:36;;;;;;;5.63;3.55;;;;;;;26.90;35.71;99685.00;10382874;28;20695;-73
2023/09/10 18:15:37;;;;;;;5.63;3.30;;;;;;;28.17;34.99;99676.81;10383364;28;20327;-73
2023/09/10 18:20:39;;;;;;;7.07;3.63;;;;;;;27.43;35.20;99710.59;10385364;28;21643;-73
2023/09/10 18:25:42;;;;;;;6.88;3.72;;;;;;;27.13;35.17;99727.22;10378208;28;20232;-73
2023/09/10 18:30:43;;;;;;;5.75;3.30;;;;;;;27.31;34.81;99708.31;10376841;28;20251;-72
2023/09/10 18:35:45;;;;;;;4.45;3.45;;;;;;;26.11;37.36;99740.25;10380144;28;20236;-73
2023/09/10 18:40:47;;;;;;;6.18;3.80;;;;;;;25.34;38.59;99730.00;10379383;28;20723;-74
2023/09/10 18:45:52;;;;;;;7.38;3.35;;;;;;;24.92;38.45;99734.88;10350263;28;20240;-72
2023/09/10 18:50:53;;;;;;;7.18;3.85;;;;;;;25.32;37.51;99715.78;10349445;28;20236;-72
2023/09/10 18:55:57;;;;;;;5.63;3.72;;;;;;;26.46;36.92;99713.56;10341759;28;20228;-72
2023/09/10 19:01:01;;;;;;;7.65;3.95;;;;;;;26.67;37.10;99718.78;10342429;28;20286;-72
2023/09/10 19:06:03;;;;;;;5.65;3.55;;;;;;;24.84;39.68;99742.88;10339386;28;20252;-74
2023/09/10 19:11:05;;;;;;;6.45;3.80;;;;;;;24.89;39.59;99748.31;10342499;28;20327;-74
2023/09/10 19:16:06;;;;;;;5.03;3.55;;;;;;;24.16;40.24;99757.84;10369604;28;20879;-72
2023/09/10 19:21:08;;;;;;;8.55;3.45;;;;;;;23.38;40.64;99753.44;10379211;28;20235;-73
2023/09/10 19:26:10;;;;;;;7.10;3.58;;;;;;;23.58;38.76;99758.94;10382357;28;20315;-72
2023/09/10 19:31:12;;;;;;;6.93;3.70;;;;;;;24.08;38.04;99764.66;10383828;28;20506;-72
2023/09/10 19:36:16;;;;;;;7.40;3.72;;;;;;;23.80;39.08;99763.31;10349667;28;20233;-74
2023/09/10 19:41:18;;;;;;;6.32;3.60;;;;;;;23.38;40.46;99775.28;10346873;28;20237;-73
2023/09/10 19:46:21;;;;;;;9.98;4.30;;;;;;;23.53;41.02;99761.63;10354534;28;20280;-74
2023/09/10 19:51:23;;;;;;;10.75;3.80;;;;;;;23.37;41.18;99763.53;10347488;28;20312;-72
2023/09/10 19:56:26;;;;;;;9.77;3.80;;;;;;;23.75;40.69;99755.13;10344206;28;20225;-73
2023/09/10 20:01:29;;;;;;;14.70;4.72;;;;;;;24.44;39.74;99737.25;10344848;28;20635;-72
2023/09/10 20:06:32;;;;;;;4.75;3.47;;;;;;;25.37;39.93;99770.50;10344995;28;20751;-73
2023/09/10 20:11:34;;;;;;;6.30;3.50;;;;;;;25.76;39.79;99768.84;10347610;28;20371;-74
2023/09/10 20:16:36;;;;;;;4.03;3.30;;;;;;;25.23;40.54;99788.66;10341048;28;20225;-74
2023/09/10 20:21:37;;;;;;;5.00;3.22;;;;;;;24.49;41.30;99782.91;10349483;28;20229;-74
2023/09/10 20:26:39;;;;;;;9.18;3.95;;;;;;;24.92;40.62;99769.66;10348045;28;20956;-74
2023/09/10 20:31:41;;;;;;;11.15;4.05;;;;;;;25.13;39.81;99791.41;10389454;28;20237;-73
2023/09/10 20:36:42;;;;;;;5.70;3.60;;;;;;;24.79;40.12;99814.03;10385535;28;20617;-74
2023/09/10 20:41:44;;;;;;;10.68;4.22;;;;;;;23.00;42.59;99804.63;10383565;28;20663;-73
2023/09/10 20:46:46;;;;;;;10.63;4.22;;;;;;;24.92;39.89;99739.53;10346481;28;20236;-73
2023/09/10 20:51:50;;;;;;;13.40;4.07;;;;;;;25.30;39.27;99791.88;10377959;28;20235;-73
2023/09/10 20:56:52;;;;;;;10.90;4.15;;;;;;;23.14;42.21;99810.44;10381120;28;20233;-73
2023/09/10 21:01:54;;;;;;;8.52;4.43;;;;;;;22.64;43.10;99785.38;10385300;28;20247;-73
2023/09/10 21:06:56;;;;;;;8.05;4.00;;;;;;;24.88;40.19;99735.72;10381267;28;20235;-73
2023/09/10 21:11:58;;;;;;;10.23;4.43;;;;;;;23.11;43.77;99765.38;10384205;28;20776;-72
2023/09/10 21:16:59;;;;;;;5.40;4.05;;;;;;;22.17;45.41;99778.84;10348028;28;20302;-72
2023/09/10 21:22:04;;;;;;;9.07;4.90;;;;;;;22.13;46.79;99770.38;10341216;28;20306;-72
2023/09/10 21:27:07;;;;;;;10.98;5.20;;;;;;;22.59;45.55;99748.03;10339713;28;20229;-72
2023/09/10 21:32:08;;;;;;;10.63;4.57;;;;;;;22.69;44.58;99804.53;10344303;28;20483;-72
2023/09/10 21:37:10;;;;;;;6.97;4.35;;;;;;;23.84;42.90;99771.78;10343475;28;20228;-72
2023/09/10 21:42:12;;;;;;;7.93;4.43;;;;;;;24.00;43.23;99755.13;10343699;28;20226;-72
2023/09/10 21:47:13;;;;;;;7.45;4.47;;;;;;;23.75;43.13;99774.25;10337463;28;20839;-72
2023/09/10 21:52:15;;;;;;;10.32;4.10;;;;;;;23.04;43.17;99760.19;10338728;28;20563;-72
2023/09/10 21:57:17;;;;;;;9.15;4.60;;;;;;;22.29;44.84;99795.00;10340333;28;20707;-72
2023/09/10 22:02:19;;;;;;;12.43;4.90;;;;;;;23.91;43.17;99721.22;10344530;28;20672;-72
2023/09/10 22:07:20;;;;;;;7.22;4.43;;;;;;;23.87;42.56;99763.03;10338698;28;20254;-72
2023/09/10 22:12:22;;;;;;;7.10;4.00;;;;;;;23.74;42.36;99751.56;10341225;28;20247;-72
2023/09/10 22:17:24;;;;;;;7.82;4.60;;;;;;;23.79;42.79;99754.31;10336814;28;20296;-72
2023/09/10 22:22:25;;;;;;;13.10;4.57;;;;;;;22.97;44.01;99759.59;10343646;28;20229;-72
2023/09/10 22:27:27;;;;;;;10.18;4.75;;;;;;;24.58;41.42;99742.97;10338837;28;20284;-73
2023/09/10 22:32:29;;;;;;;8.40;4.53;;;;;;;22.29;45.19;99748.66;10341164;28;20735;-72
2023/09/10 22:37:31;;;;;;;8.07;4.10;;;;;;;23.25;43.57;99731.03;10335858;28;20251;-72
2023/09/10 22:42:32;;;;;;;10.15;4.05;;;;;;;22.95;43.50;99782.81;10341540;28;20368;-72
2023/09/10 22:47:34;;;;;;;9.00;4.20;;;;;;;22.52;45.07;99745.53;10340547;28;20233;-72
2023/09/10 22:52:36;;;;;;;6.80;4.60;;;;;;;23.03;44.42;99724.97;10344328;28;20236;-72
2023/09/10 22:57:37;;;;;;;10.65;4.80;;;;;;;21.28;47.32;99756.53;10374758;28;20244;-72
2023/09/10 23:02:40;;;;;;;7.28;4.68;;;;;;;21.01;48.14;99746.44;10374709;28;20357;-72
2023/09/10 23:07:42;;;;;;;10.25;4.78;;;;;;;20.72;48.50;99743.09;10339724;28;20317;-72
2023/09/10 23:12:43;;;;;;;11.45;5.00;;;;;;;20.59;48.80;99721.72;10378131;28;26129;-71
2023/09/10 23:17:45;;;;;;;8.70;4.95;;;;;;;21.34;48.16;99711.97;10376704;28;20310;-72
2023/09/10 23:22:53;;;;;;;7.70;5.13;;;;;;;21.76;48.09;99670.41;10372761;28;20240;-72
2023/09/10 23:27:55;;;;;;;8.30;5.43;;;;;;;22.29;46.62;99700.41;10334825;28;20320;-72
2023/09/10 23:32:57;;;;;;;8.57;5.00;;;;;;;21.44;48.31;99704.97;10342501;28;20347;-72
2023/09/10 23:37:59;;;;;;;9.55;5.28;;;;;;;22.44;46.21;99696.94;10334441;28;20265;-72